^^
Station Historical Data
Daily Summary for June 23, 2021 Units:  English    Metric   Both
Daily Weekly Monthly Yearly
  High: Low: Average:
Temperature: 68.2 °F 55.1 °F 60 °F
Dew Point: 54.6 °F 48.8 °F 51.6 °F
Humidity: 88% 58% 74%
Wind Speed: 3mph 0mph 1.7mph
Wind Gust: 8mph - -
Wind- - SE
Pressure: 30.08 in 29.97 in -
Precipitation: 0.00 in    
 
 
Tabular Data for June 23, 2021
Time Temperature Dew Point Pressure Wind Wind Speed Wind Gust Humidity Rainfall Rate (Hourly) solar
00:00 60.4 °F 52.8 °F 29.97 in NNE 2 mph 2 mph 76% 0.00 in 0 W/m2
00:05 60.4 °F 52.8 °F 29.97 in NE 2 mph 2 mph 76% 0.00 in 0 W/m2
00:10 60.4 °F 52.8 °F 29.97 in South 2 mph 2 mph 76% 0.00 in 0 W/m2
00:15 60.4 °F 53.2 °F 29.97 in North 2 mph 2 mph 77% 0.00 in 0 W/m2
00:20 60.4 °F 53.2 °F 29.97 in North 2 mph 2 mph 77% 0.00 in 0 W/m2
00:25 60.3 °F 53.1 °F 29.97 in North 2 mph 2 mph 77% 0.00 in 0 W/m2
00:30 60.2 °F 53.3 °F 29.97 in North 2 mph 2 mph 78% 0.00 in 0 W/m2
00:35 60.2 °F 53.3 °F 29.97 in NNE 2 mph 2 mph 78% 0.00 in 0 W/m2
00:40 60.1 °F 52.9 °F 29.97 in NE 2 mph 2 mph 77% 0.00 in 0 W/m2
00:45 60.1 °F 53.6 °F 29.97 in NNW 2 mph 2 mph 79% 0.00 in 0 W/m2
00:50 59.9 °F 53 °F 29.98 in NNE 2 mph 2 mph 78% 0.00 in 0 W/m2
00:55 59.9 °F 53 °F 29.98 in NNE 2 mph 2 mph 78% 0.00 in 0 W/m2
01:00 59.9 °F 53.4 °F 29.98 in ENE 2 mph 2 mph 79% 0.00 in 0 W/m2
01:05 59.9 °F 53.7 °F 29.98 in ESE 2 mph 2 mph 80% 0.00 in 0 W/m2
01:10 59.9 °F 53.7 °F 29.98 in North 2 mph 2 mph 80% 0.00 in 0 W/m2
01:15 59.9 °F 53.4 °F 29.98 in NNE 2 mph 2 mph 79% 0.00 in 0 W/m2
01:20 60.1 °F 54.6 °F 29.98 in NE 2 mph 2 mph 82% 0.00 in 0 W/m2
01:25 60.2 °F 54.3 °F 29.98 in ESE 2 mph 2 mph 81% 0.00 in 0 W/m2
01:30 60.2 °F 54.3 °F 29.99 in North 1 mph 1 mph 81% 0.00 in 0 W/m2
01:35 60.1 °F 52.9 °F 29.98 in WNW 2 mph 3 mph 77% 0.00 in 0 W/m2
01:40 59.8 °F 51.1 °F 29.99 in WSW 3 mph 3 mph 73% 0.00 in 0 W/m2
01:45 59.8 °F 51.5 °F 29.99 in WSW 3 mph 4 mph 74% 0.00 in 0 W/m2
01:50 59.9 °F 50.8 °F 29.99 in NW 2 mph 2 mph 72% 0.00 in 0 W/m2
01:55 60 °F 50.6 °F 29.99 in West 2 mph 5 mph 71% 0.00 in 0 W/m2
02:00 60 °F 50.2 °F 29.99 in WSW 3 mph 3 mph 70% 0.00 in 0 W/m2
02:05 60 °F 50.2 °F 29.99 in WNW 3 mph 8 mph 70% 0.00 in 0 W/m2
02:10 60 °F 49.8 °F 29.99 in West 3 mph 3 mph 69% 0.00 in 0 W/m2
02:15 60 °F 49.8 °F 29.99 in NW 3 mph 3 mph 69% 0.00 in 0 W/m2
02:20 60.1 °F 49.5 °F 29.99 in West 2 mph 3 mph 68% 0.00 in 0 W/m2
02:25 60 °F 49.4 °F 29.99 in NW 2 mph 3 mph 68% 0.00 in 0 W/m2
02:30 60 °F 49.8 °F 29.99 in WSW 2 mph 3 mph 69% 0.00 in 0 W/m2
02:35 60 °F 49 °F 29.99 in WSW 2 mph 3 mph 67% 0.00 in 0 W/m2
02:40 60 °F 49.4 °F 30.00 in SW 3 mph 3 mph 68% 0.00 in 0 W/m2
02:45 60 °F 49.4 °F 30.00 in WNW 2 mph 5 mph 68% 0.00 in 0 W/m2
02:50 60 °F 49.4 °F 29.99 in NNW 2 mph 2 mph 68% 0.00 in 0 W/m2
02:55 60 °F 49 °F 29.99 in WSW 3 mph 3 mph 67% 0.00 in 0 W/m2
03:00 60 °F 49 °F 30.00 in West 3 mph 4 mph 67% 0.00 in 0 W/m2
03:05 60 °F 49 °F 30.00 in NW 2 mph 4 mph 67% 0.00 in 0 W/m2
03:10 60.1 °F 49.5 °F 30.00 in North 2 mph 2 mph 68% 0.00 in 0 W/m2
03:15 60 °F 49 °F 30.00 in WSW 2 mph 2 mph 67% 0.00 in 0 W/m2
03:20 60 °F 49 °F 29.99 in WSW 2 mph 3 mph 67% 0.00 in 0 W/m2
03:25 60 °F 49.4 °F 30.00 in NW 2 mph 3 mph 68% 0.00 in 0 W/m2
03:30 60 °F 49 °F 29.99 in SW 2 mph 3 mph 67% 0.00 in 0 W/m2
03:35 59.9 °F 48.9 °F 29.99 in NW 2 mph 3 mph 67% 0.00 in 0 W/m2
03:40 59.9 °F 48.9 °F 29.99 in West 2 mph 2 mph 67% 0.00 in 0 W/m2
03:45 59.9 °F 48.9 °F 29.99 in West 1 mph 3 mph 67% 0.00 in 0 W/m2
03:50 59.9 °F 48.9 °F 29.99 in NE 2 mph 2 mph 67% 0.00 in 0 W/m2
03:55 59.8 °F 48.8 °F 29.99 in West 2 mph 2 mph 67% 0.00 in 0 W/m2
04:00 59.8 °F 48.8 °F 29.99 in North 1 mph 1 mph 67% 0.00 in 0 W/m2
04:05 59.8 °F 48.8 °F 29.99 in SW 1 mph 1 mph 67% 0.00 in 0 W/m2
04:10 59.7 °F 49.1 °F 29.99 in NW 1 mph 1 mph 68% 0.00 in 0 W/m2
04:15 59.7 °F 49.1 °F 29.99 in SSW 1 mph 1 mph 68% 0.00 in 0 W/m2
04:20 59.6 °F 49 °F 29.99 in West 1 mph 2 mph 68% 0.00 in 0 W/m2
04:25 59.6 °F 49 °F 30.00 in WNW 2 mph 2 mph 68% 0.00 in 0 W/m2
04:30 59.5 °F 48.9 °F 29.99 in West 1 mph 2 mph 68% 0.00 in 0 W/m2
04:35 59.5 °F 48.9 °F 30.00 in ESE 1 mph 2 mph 68% 0.00 in 0 W/m2
04:40 59.4 °F 48.8 °F 30.00 in South 1 mph 1 mph 68% 0.00 in 0 W/m2
04:45 59.4 °F 49.2 °F 30.00 in Calm   1 mph 69% 0.00 in 0 W/m2
04:50 59.5 °F 53.7 °F 30.00 in NW 1 mph 1 mph 81% 0.00 in 0 W/m2
04:55 59.1 °F 53.9 °F 30.00 in NE 1 mph 1 mph 83% 0.00 in 0 W/m2
05:00 58.2 °F 53.4 °F 30.00 in North 1 mph 1 mph 84% 0.00 in 0 W/m2
05:05 57.7 °F 52.9 °F 30.00 in East 1 mph 1 mph 84% 0.00 in 0 W/m2
05:10 57.5 °F 53 °F 30.00 in East 1 mph 1 mph 85% 0.00 in 0 W/m2
05:15 57.2 °F 52.7 °F 30.00 in SE 1 mph 2 mph 85% 0.00 in 0 W/m2
05:20 57 °F 52.5 °F 30.00 in East 1 mph 2 mph 85% 0.00 in 0 W/m2
05:25 56.7 °F 52.2 °F 30.01 in ESE 1 mph 2 mph 85% 0.00 in 0 W/m2
05:30 56.6 °F 52.5 °F 30.01 in East 1 mph 1 mph 86% 0.00 in 0 W/m2
05:35 56.5 °F 52.4 °F 30.01 in East 1 mph 1 mph 86% 0.00 in 0 W/m2
05:40 56.3 °F 52.2 °F 30.02 in Calm   2 mph 86% 0.00 in 0 W/m2
05:45 56 °F 51.9 °F 30.02 in Calm   2 mph 86% 0.00 in 5 W/m2
05:50 55.7 °F 51.6 °F 30.02 in ENE 1 mph 1 mph 86% 0.00 in 7 W/m2
05:55 55.4 °F 51.3 °F 30.02 in NE 1 mph 1 mph 86% 0.00 in 7 W/m2
06:00 55.3 °F 51.5 °F 30.02 in ESE 1 mph 1 mph 87% 0.00 in 9 W/m2
06:05 55.2 °F 51.1 °F 30.02 in North 1 mph 1 mph 86% 0.00 in 9 W/m2
06:10 55.1 °F 51 °F 30.02 in East 1 mph 1 mph 86% 0.00 in 11 W/m2
06:15 55.1 °F 51.3 °F 30.02 in NNE 1 mph 1 mph 87% 0.00 in 12 W/m2
06:20 55.2 °F 51.4 °F 30.03 in NNE 1 mph 2 mph 87% 0.00 in 12 W/m2
06:25 55.4 °F 51.9 °F 30.03 in NE 1 mph 2 mph 88% 0.00 in 14 W/m2
06:30 55.5 °F 51.7 °F 30.03 in NW 2 mph 2 mph 87% 0.00 in 18 W/m2
06:35 55.6 °F 51.8 °F 30.03 in North 1 mph 2 mph 87% 0.00 in 21 W/m2
06:40 55.6 °F 51.8 °F 30.03 in ENE 1 mph 1 mph 87% 0.00 in 23 W/m2
06:45 55.6 °F 51.5 °F 30.03 in NNW 1 mph 1 mph 86% 0.00 in 25 W/m2
06:50 55.7 °F 51.9 °F 30.03 in North 1 mph 1 mph 87% 0.00 in 25 W/m2
06:55 55.8 °F 52 °F 30.03 in NW 1 mph 1 mph 87% 0.00 in 25 W/m2
07:00 55.7 °F 51.9 °F 30.03 in NNE 1 mph 1 mph 87% 0.00 in 26 W/m2
07:05 55.6 °F 51.5 °F 30.03 in NNE 1 mph 2 mph 86% 0.00 in 30 W/m2
07:10 55.6 °F 51.5 °F 30.03 in NNW 1 mph 2 mph 86% 0.00 in 37 W/m2
07:15 55.7 °F 51.6 °F 30.03 in North 1 mph 2 mph 86% 0.00 in 30 W/m2
07:20 55.7 °F 51.3 °F 30.04 in NE 2 mph 2 mph 85% 0.00 in 30 W/m2
07:25 55.8 °F 51.4 °F 30.04 in NNE 2 mph 2 mph 85% 0.00 in 32 W/m2
07:30 56.1 °F 51.7 °F 30.04 in NE 2 mph 2 mph 85% 0.00 in 79 W/m2
07:35 56.5 °F 52 °F 30.05 in North 2 mph 2 mph 85% 0.00 in 67 W/m2
07:40 56.7 °F 51.9 °F 30.05 in NE 2 mph 2 mph 84% 0.00 in 213 W/m2
07:45 57 °F 52.2 °F 30.05 in NNW 2 mph 2 mph 84% 0.00 in 225 W/m2
07:50 57.4 °F 52.6 °F 30.05 in North 2 mph 2 mph 84% 0.00 in 237 W/m2
07:55 57.7 °F 51.9 °F 30.05 in NNE 2 mph 3 mph 81% 0.00 in 255 W/m2
08:00 58 °F 52.5 °F 30.05 in NNE 2 mph 2 mph 82% 0.00 in 271 W/m2
08:05 58.3 °F 52.5 °F 30.06 in NE 2 mph 2 mph 81% 0.00 in 287 W/m2
08:10 58.4 °F 52.3 °F 30.05 in ENE 2 mph 2 mph 80% 0.00 in 301 W/m2
08:15 58.8 °F 52.6 °F 30.06 in ENE 2 mph 2 mph 80% 0.00 in 316 W/m2
08:20 59.2 °F 52.7 °F 30.06 in NE 2 mph 3 mph 79% 0.00 in 332 W/m2
08:25 59.5 °F 52.6 °F 30.06 in NNE 2 mph 3 mph 78% 0.00 in 346 W/m2
08:30 59.7 °F 52.1 °F 30.06 in NE 2 mph 2 mph 76% 0.00 in 360 W/m2
08:35 59.9 °F 52.7 °F 30.06 in NNW 2 mph 2 mph 77% 0.00 in 374 W/m2
08:40 60.2 °F 52.6 °F 30.06 in NNE 2 mph 2 mph 76% 0.00 in 390 W/m2
08:45 60.5 °F 52.5 °F 30.06 in NNE 2 mph 3 mph 75% 0.00 in 406 W/m2
08:50 60.7 °F 52 °F 30.06 in North 1 mph 2 mph 73% 0.00 in 420 W/m2
08:55 61 °F 52.3 °F 30.07 in NE 1 mph 2 mph 73% 0.00 in 432 W/m2
09:00 61.2 °F 52.1 °F 30.07 in NNE 1 mph 1 mph 72% 0.00 in 446 W/m2
09:05 61.4 °F 52.3 °F 30.07 in NE 1 mph 1 mph 72% 0.00 in 459 W/m2
09:10 61.6 °F 52.9 °F 30.07 in North 1 mph 2 mph 73% 0.00 in 473 W/m2
09:15 61.9 °F 52.8 °F 30.07 in NE 2 mph 2 mph 72% 0.00 in 487 W/m2
09:20 62 °F 52.5 °F 30.07 in East 2 mph 2 mph 71% 0.00 in 501 W/m2
09:25 62.2 °F 52.7 °F 30.08 in NE 2 mph 3 mph 71% 0.00 in 513 W/m2
09:30 62.5 °F 52.6 °F 30.07 in NNW 2 mph 2 mph 70% 0.00 in 527 W/m2
09:35 62.6 °F 51.5 °F 30.07 in ENE 2 mph 2 mph 67% 0.00 in 540 W/m2
09:40 62.8 °F 51.7 °F 30.07 in ESE 2 mph 2 mph 67% 0.00 in 552 W/m2
09:45 63 °F 51.9 °F 30.07 in NNE 2 mph 2 mph 67% 0.00 in 564 W/m2
09:50 63.3 °F 52.2 °F 30.07 in NNE 2 mph 3 mph 67% 0.00 in 573 W/m2
09:55 63.6 °F 52 °F 30.07 in East 2 mph 3 mph 66% 0.00 in 585 W/m2
10:00 63.8 °F 52.2 °F 30.07 in NNE 1 mph 1 mph 66% 0.00 in 599 W/m2
10:05 64.1 °F 52.1 °F 30.07 in NE 1 mph 1 mph 65% 0.00 in 612 W/m2
10:10 64.4 °F 52 °F 30.07 in North 2 mph 2 mph 64% 0.00 in 626 W/m2
10:15 64.6 °F 51.7 °F 30.07 in NNW 2 mph 3 mph 63% 0.00 in 636 W/m2
10:20 64.9 °F 52.8 °F 30.07 in North 2 mph 2 mph 65% 0.00 in 645 W/m2
10:25 65.1 °F 51.3 °F 30.07 in NNW 2 mph 2 mph 61% 0.00 in 656 W/m2
10:30 65.4 °F 52 °F 30.06 in NNE 2 mph 2 mph 62% 0.00 in 664 W/m2
10:35 65.7 °F 51.4 °F 30.06 in East 2 mph 2 mph 60% 0.00 in 673 W/m2
10:40 65.8 °F 51.5 °F 30.06 in ESE 2 mph 2 mph 60% 0.00 in 687 W/m2
10:45 66.1 °F 51.4 °F 30.06 in NE 2 mph 4 mph 59% 0.00 in 677 W/m2
10:50 66.1 °F 52.7 °F 30.06 in ESE 2 mph 2 mph 62% 0.00 in 710 W/m2
10:55 66.4 °F 53.4 °F 30.07 in ENE 2 mph 3 mph 63% 0.00 in 707 W/m2
11:00 66.5 °F 51.7 °F 30.07 in NE 2 mph 3 mph 59% 0.00 in 722 W/m2
11:05 66.7 °F 53.3 °F 30.06 in NNW 2 mph 3 mph 62% 0.00 in 731 W/m2
11:10 67.1 °F 53.2 °F 30.07 in NNW 2 mph 2 mph 61% 0.00 in 705 W/m2
11:15 67.4 °F 52.6 °F 30.06 in South 2 mph 2 mph 59% 0.00 in 759 W/m2
11:20 67.5 °F 53.6 °F 30.06 in NE 2 mph 2 mph 61% 0.00 in 758 W/m2
11:25 67.9 °F 54 °F 30.06 in ENE 2 mph 2 mph 61% 0.00 in 721 W/m2
11:30 68.2 °F 52.9 °F 30.06 in NNW 2 mph 2 mph 58% 0.00 in 786 W/m2
Sand Point, Michigan, USA
Compliments of Weather Underground - 2 mb